createdAt,value
2018-10-03T00:05:20.392Z,9.8
2018-10-03T00:21:58.616Z,9.4
2018-10-03T00:38:37.195Z,9.4
2018-10-03T00:55:15.257Z,9.8
2018-10-03T01:11:53.666Z,10.1
2018-10-03T01:28:32.286Z,10.4
2018-10-03T01:45:12.101Z,10.4
2018-10-03T02:01:49.988Z,10.4
2018-10-03T02:18:28.768Z,10.4
2018-10-03T02:35:07.651Z,10.4
2018-10-03T02:51:46.592Z,10.4
2018-10-03T03:08:25.402Z,10.4
2018-10-03T03:25:04.485Z,10.4
2018-10-03T03:41:43.527Z,10.7
2018-10-03T03:58:22.632Z,10.4
2018-10-03T04:15:01.721Z,10.7
2018-10-03T04:31:40.845Z,10.7
2018-10-03T04:48:19.795Z,10.1
2018-10-03T05:04:58.511Z,10.1
2018-10-03T05:21:37.159Z,10.1
2018-10-03T05:38:15.845Z,9.8
2018-10-03T05:54:54.560Z,9.8
2018-10-03T06:11:32.889Z,10.1
2018-10-03T06:28:11.639Z,10.4
2018-10-03T06:44:50.744Z,10.7
2018-10-03T07:01:30.174Z,11.0
2018-10-03T07:18:09.888Z,11.7
2018-10-03T07:34:50.199Z,11.7
2018-10-03T07:48:10.340Z,12.3
2018-10-03T08:04:51.300Z,12.6
2018-10-03T08:21:32.383Z,12.6
2018-10-03T08:38:13.489Z,12.6
2018-10-03T08:54:54.504Z,13.0
2018-10-03T09:04:55.342Z,13.6
2018-10-03T09:14:56.286Z,13.6
2018-10-03T09:31:37.894Z,13.9
2018-10-03T09:48:19.818Z,14.2
2018-10-03T10:05:02.108Z,14.6
2018-10-03T10:21:44.572Z,14.9
2018-10-03T10:38:27.364Z,15.2
2018-10-03T10:41:47.964Z,15.2
2018-10-03T10:58:30.985Z,15.5
2018-10-03T11:15:14.341Z,15.8
2018-10-03T11:31:57.934Z,15.8
2018-10-03T11:41:59.898Z,15.8
2018-10-03T11:58:43.621Z,15.8
2018-10-03T12:15:26.912Z,15.5
2018-10-03T12:32:10.488Z,15.5
2018-10-03T12:48:53.403Z,15.8
2018-10-03T12:58:55.547Z,16.5
2018-10-03T13:15:39.656Z,16.5
2018-10-03T13:32:25.255Z,16.2
2018-10-03T13:49:07.092Z,15.8
2018-10-03T14:05:50.462Z,15.5
2018-10-03T14:12:32.827Z,16.2
2018-10-03T14:29:15.421Z,16.2
2018-10-03T14:45:59.988Z,16.5
2018-10-03T14:56:02.138Z,15.8
2018-10-03T15:12:44.971Z,15.2
2018-10-03T15:29:27.882Z,15.2
2018-10-03T15:46:10.422Z,14.6
2018-10-03T16:02:53.559Z,14.2
2018-10-03T16:19:35.296Z,14.2
2018-10-03T16:36:16.867Z,14.2
2018-10-03T16:52:59.085Z,14.2
2018-10-03T17:09:42.413Z,13.9
2018-10-03T17:26:23.497Z,13.9
2018-10-03T17:43:05.045Z,13.3
2018-10-03T17:59:45.929Z,13.0
2018-10-03T18:16:27.147Z,13.0
2018-10-03T18:33:09.204Z,13.0
2018-10-03T18:49:52.783Z,13.0
2018-10-03T19:06:33.550Z,12.6
2018-10-03T19:19:52.231Z,12.0
2018-10-03T19:36:33.256Z,11.7
2018-10-03T19:53:11.418Z,11.7
2018-10-03T20:09:51.100Z,11.4
2018-10-03T20:26:30.988Z,11.0
2018-10-03T20:43:11.283Z,11.0
2018-10-03T20:59:50.123Z,11.0
2018-10-03T21:16:31.281Z,11.0
2018-10-03T21:33:09.628Z,10.7
2018-10-03T21:49:49.098Z,10.4
2018-10-03T22:06:27.528Z,10.4
2018-10-03T22:23:06.966Z,10.1
2018-10-03T22:39:45.605Z,10.4
2018-10-03T22:56:24.334Z,10.1
2018-10-03T23:13:04.081Z,10.1
2018-10-03T23:29:41.335Z,10.1
2018-10-03T23:46:19.392Z,10.4
